SHIS weather

Isidora 3000 Heliport
Las Condes, Santiago Metropolitan Region, Chile

Public forecast

Using degrees Celsius for public forecast. Weather courtesy of forecast.io.

METAR (pilot weather report)

Report is more than 2 hours old.

Closest report is Eulogio Sánchez Airport, 3.6 nm (6.7 km) SE. Retrieved 2019/09/15 22:00 UTC (6 hours ago):

SCTB 152200Z 22007KT 9000 BKN050 SCT080 14/04 Q1021

TAF (pilot weather forecast)

Closest forecast is Comodoro Arturo Merino Benítez International Airport, 9.5 nm (17.6 km) W. Retrieved 2019/09/16 00:00 UTC (4 hours ago):

TAF SCEL 152211Z 1600/1624 15008KT 9999 BKN040 TX22/1618Z TN04/1611Z TEMPO 1600/1602 22010KT -SHRA BKN030 BKN050 BECMG 1604/1606 20008KT 6000 BKN015 BKN050 TEMPO 1608/1612 2000 BR BKN005 BECMG 1613/1615 18010KT CAVOK